createdAt,value
2023-03-25T00:00:30.284Z,7.30
2023-03-25T00:05:32.666Z,7.20
2023-03-25T00:10:35.029Z,7.40
2023-03-25T00:15:37.553Z,7.20
2023-03-25T00:20:41.042Z,7.30
2023-03-25T00:25:45.145Z,7.30
2023-03-25T00:30:47.613Z,7.30
2023-03-25T00:35:54.570Z,7.40
2023-03-25T00:40:56.962Z,7.20
2023-03-25T00:45:59.337Z,7.20
2023-03-25T00:51:07.395Z,7.20
2023-03-25T00:56:09.829Z,7.10
2023-03-25T01:01:15.692Z,7.00
2023-03-25T01:06:18.096Z,7.00
2023-03-25T01:11:23.237Z,7.00
2023-03-25T01:16:26.436Z,7.10
2023-03-25T01:21:28.877Z,6.90
2023-03-25T01:26:31.493Z,6.90
2023-03-25T01:31:33.828Z,6.80
2023-03-25T01:36:37.522Z,6.70
2023-03-25T01:41:48.936Z,6.70
2023-03-25T01:46:54.444Z,6.70
2023-03-25T01:52:03.151Z,6.60
2023-03-25T01:57:08.458Z,6.60
2023-03-25T02:02:17.727Z,6.60
2023-03-25T02:07:20.803Z,6.50
2023-03-25T02:12:23.260Z,6.60
2023-03-25T02:17:51.363Z,6.60
2023-03-25T02:23:07.750Z,6.50
2023-03-25T02:28:49.606Z,6.50
2023-03-25T02:33:51.955Z,6.40
2023-03-25T02:38:57.966Z,6.50
2023-03-25T02:44:29.938Z,6.30
2023-03-25T02:49:40.496Z,6.30
2023-03-25T02:54:45.245Z,6.20
2023-03-25T02:59:50.609Z,6.20
2023-03-25T03:04:56.744Z,6.10
2023-03-25T03:10:05.126Z,6.00
2023-03-25T03:15:49.995Z,5.90
2023-03-25T03:21:07.026Z,5.80
2023-03-25T03:26:28.966Z,6.00
2023-03-25T03:32:05.971Z,5.70
2023-03-25T03:37:13.818Z,5.70
2023-03-25T03:42:44.256Z,5.50
2023-03-25T03:47:54.488Z,5.60
2023-03-25T03:53:03.139Z,5.40
2023-03-25T03:58:16.764Z,5.30
2023-03-25T04:03:30.540Z,5.20
2023-03-25T04:08:42.925Z,5.20
2023-03-25T04:13:49.729Z,5.20
2023-03-25T04:18:53.741Z,5.10
2023-03-25T04:23:56.304Z,5.10
2023-03-25T04:29:00.525Z,5.00
2023-03-25T04:34:04.604Z,5.10
2023-03-25T04:39:07.741Z,5.00
2023-03-25T04:44:10.821Z,4.90
2023-03-25T04:49:21.393Z,4.90
2023-03-25T04:54:24.109Z,4.90
2023-03-25T04:59:27.134Z,4.90
2023-03-25T05:04:29.730Z,4.90
2023-03-25T05:09:32.056Z,4.90
2023-03-25T05:14:34.465Z,4.90
2023-03-25T05:19:44.008Z,5.00
2023-03-25T05:24:46.575Z,5.40
2023-03-25T05:29:48.948Z,5.80
2023-03-25T05:34:53.208Z,6.30
2023-03-25T05:39:55.646Z,6.40
2023-03-25T05:44:57.949Z,6.60
2023-03-25T05:50:00.851Z,6.90
2023-03-25T05:55:05.037Z,7.10
2023-03-25T06:00:08.975Z,7.20
2023-03-25T06:05:14.761Z,7.30
2023-03-25T06:10:18.045Z,7.80
2023-03-25T06:15:29.202Z,7.50
2023-03-25T06:20:33.558Z,7.60
2023-03-25T06:25:35.925Z,7.90
2023-03-25T06:30:38.285Z,7.80
2023-03-25T06:35:42.736Z,7.90
2023-03-25T06:40:45.189Z,8.20
2023-03-25T06:45:51.936Z,8.50
2023-03-25T06:51:01.749Z,9.00
2023-03-25T06:56:04.213Z,9.20
2023-03-25T07:01:07.652Z,9.30
2023-03-25T07:06:16.923Z,9.40
2023-03-25T07:11:27.366Z,9.60
2023-03-25T07:16:29.940Z,9.70
2023-03-25T07:21:32.368Z,10.00
2023-03-25T07:26:34.866Z,10.00
2023-03-25T07:31:37.356Z,10.50
2023-03-25T07:36:39.858Z,10.60
2023-03-25T07:41:43.074Z,10.70
2023-03-25T07:47:04.905Z,10.80
2023-03-25T07:52:07.850Z,11.10
2023-03-25T07:57:10.333Z,10.90
2023-03-25T08:02:14.766Z,11.00
2023-03-25T08:07:17.447Z,11.30
2023-03-25T08:12:22.783Z,11.40
2023-03-25T08:17:25.273Z,11.30
2023-03-25T08:22:28.133Z,11.60
2023-03-25T08:27:30.952Z,12.30
2023-03-25T08:32:33.400Z,12.40
2023-03-25T08:37:35.844Z,13.00
2023-03-25T08:42:38.525Z,12.60
2023-03-25T08:47:42.512Z,13.00
2023-03-25T08:52:46.439Z,12.50
2023-03-25T08:57:48.863Z,12.30
2023-03-25T09:02:51.730Z,12.60
2023-03-25T09:07:54.794Z,12.70
2023-03-25T09:12:57.556Z,12.50
2023-03-25T09:18:00.023Z,12.30
2023-03-25T09:23:02.476Z,12.40
2023-03-25T09:28:05.144Z,12.80
2023-03-25T09:33:08.022Z,12.80
2023-03-25T09:38:10.427Z,12.70
2023-03-25T09:43:34.242Z,12.50
2023-03-25T09:48:44.168Z,12.50
2023-03-25T09:54:03.151Z,12.40
2023-03-25T09:59:17.989Z,12.30
2023-03-25T10:04:31.721Z,12.60
2023-03-25T10:10:14.992Z,13.20
2023-03-25T10:16:13.925Z,13.10
2023-03-25T10:21:28.138Z,13.10
2023-03-25T10:26:45.409Z,12.90
2023-03-25T10:31:53.998Z,13.80
2023-03-25T10:36:58.250Z,14.40
2023-03-25T10:42:10.902Z,15.10
2023-03-25T10:47:19.688Z,15.50
2023-03-25T10:52:22.299Z,15.30
2023-03-25T10:57:29.736Z,15.50
2023-03-25T11:02:33.721Z,15.50
2023-03-25T11:07:39.976Z,14.20
2023-03-25T11:12:50.048Z,11.90
2023-03-25T11:18:17.146Z,10.50
2023-03-25T11:23:25.754Z,10.20
2023-03-25T11:28:42.090Z,10.10
2023-03-25T11:33:47.283Z,10.20
2023-03-25T11:39:01.326Z,10.80
2023-03-25T11:44:05.989Z,11.40
2023-03-25T11:49:12.096Z,11.80
2023-03-25T11:54:18.314Z,12.40
2023-03-25T11:59:35.997Z,12.30
2023-03-25T12:04:38.392Z,12.60
2023-03-25T12:09:57.726Z,13.00
2023-03-25T12:15:18.991Z,13.20
2023-03-25T12:20:25.793Z,12.50
2023-03-25T12:25:48.487Z,12.40
2023-03-25T12:31:23.453Z,12.00
2023-03-25T12:36:41.885Z,11.60
2023-03-25T12:42:12.284Z,11.50
2023-03-25T12:47:29.118Z,12.10
2023-03-25T12:52:57.256Z,12.80
2023-03-25T12:58:21.505Z,13.30
2023-03-25T13:03:45.474Z,13.80
2023-03-25T13:09:13.014Z,13.30
2023-03-25T13:14:29.381Z,13.10
2023-03-25T13:19:39.431Z,12.90
2023-03-25T13:24:51.580Z,11.80
2023-03-25T13:29:57.803Z,10.70
2023-03-25T13:35:43.173Z,10.60
2023-03-25T13:40:53.985Z,11.30
2023-03-25T13:46:16.297Z,12.10
2023-03-25T13:51:18.961Z,12.20
2023-03-25T13:56:58.237Z,12.70
2023-03-25T14:02:09.261Z,12.60
2023-03-25T14:07:17.202Z,12.20
2023-03-25T14:12:37.211Z,12.20
2023-03-25T14:17:41.232Z,12.10
2023-03-25T14:22:44.283Z,12.00
2023-03-25T14:27:50.514Z,12.00
2023-03-25T14:32:56.305Z,11.70
2023-03-25T14:38:07.947Z,12.10
2023-03-25T14:43:33.138Z,12.50
2023-03-25T14:48:37.973Z,12.70
2023-03-25T14:53:42.012Z,12.80
2023-03-25T14:58:45.012Z,13.10
2023-03-25T15:03:48.781Z,13.40
2023-03-25T15:08:57.270Z,13.00
2023-03-25T15:14:03.873Z,13.00
2023-03-25T15:19:10.197Z,12.70
2023-03-25T15:24:16.794Z,12.60
2023-03-25T15:29:34.180Z,12.30
2023-03-25T15:34:56.553Z,12.10
2023-03-25T15:40:28.479Z,12.40
2023-03-25T15:45:39.952Z,12.40
2023-03-25T15:50:50.020Z,12.20
2023-03-25T15:56:02.143Z,11.90
2023-03-25T16:01:15.347Z,11.70
2023-03-25T16:06:18.379Z,11.80
2023-03-25T16:11:20.706Z,11.60
2023-03-25T16:16:23.188Z,11.50
2023-03-25T16:21:29.826Z,11.50
2023-03-25T16:26:38.342Z,11.60
2023-03-25T16:31:42.967Z,11.30
2023-03-25T16:36:51.031Z,11.40
2023-03-25T16:42:01.441Z,11.20
2023-03-25T16:47:04.514Z,11.00
2023-03-25T16:52:14.362Z,10.80
2023-03-25T16:57:24.642Z,10.70
2023-03-25T17:02:44.233Z,10.70
2023-03-25T17:07:49.553Z,10.70
2023-03-25T17:13:17.223Z,10.70
2023-03-25T17:18:26.501Z,10.40
2023-03-25T17:23:41.504Z,10.20
2023-03-25T17:28:59.867Z,10.10
2023-03-25T17:34:08.638Z,9.90
2023-03-25T17:39:22.909Z,9.80
2023-03-25T17:44:31.110Z,9.90
2023-03-25T17:49:33.874Z,9.90
2023-03-25T17:54:36.495Z,10.00
2023-03-25T17:59:38.906Z,10.00
2023-03-25T18:04:41.727Z,10.00
2023-03-25T18:09:44.110Z,9.60
2023-03-25T18:14:46.560Z,9.50
2023-03-25T18:19:52.029Z,9.30
2023-03-25T18:24:54.643Z,9.10
2023-03-25T18:29:57.297Z,9.00
2023-03-25T18:34:59.721Z,8.70
2023-03-25T18:40:02.181Z,8.70
2023-03-25T18:45:04.784Z,8.50
2023-03-25T18:50:17.927Z,8.60
2023-03-25T18:55:20.472Z,8.70
2023-03-25T19:00:29.217Z,8.80
2023-03-25T19:05:32.943Z,8.80
2023-03-25T19:10:35.684Z,8.80
2023-03-25T19:15:39.263Z,8.70
2023-03-25T19:20:44.479Z,8.60
2023-03-25T19:25:49.117Z,8.40
2023-03-25T19:30:55.004Z,8.30
2023-03-25T19:36:02.063Z,8.30
2023-03-25T19:41:08.333Z,8.10
2023-03-25T19:46:11.406Z,7.90
2023-03-25T19:51:13.929Z,7.90
2023-03-25T19:56:16.899Z,7.90
2023-03-25T20:01:19.635Z,7.80
2023-03-25T20:06:21.982Z,7.80
2023-03-25T20:11:24.481Z,7.80
2023-03-25T20:16:28.386Z,7.80
2023-03-25T20:21:31.163Z,7.90
2023-03-25T20:26:33.583Z,7.90
2023-03-25T20:31:36.431Z,7.90
2023-03-25T20:36:39.125Z,7.80
2023-03-25T20:41:41.620Z,7.80
2023-03-25T20:46:46.466Z,7.80
2023-03-25T20:51:50.914Z,7.50
2023-03-25T20:56:53.740Z,7.40
2023-03-25T21:01:56.095Z,7.30
2023-03-25T21:06:58.768Z,7.30
2023-03-25T21:12:01.380Z,7.40
2023-03-25T21:17:04.016Z,7.50
2023-03-25T21:22:06.585Z,7.60
2023-03-25T21:27:09.399Z,7.90
2023-03-25T21:32:14.040Z,7.70
2023-03-25T21:37:16.508Z,7.70
2023-03-25T21:42:18.855Z,7.80
2023-03-25T21:47:22.388Z,7.80
2023-03-25T21:52:26.396Z,7.80
2023-03-25T21:57:30.727Z,7.90
2023-03-25T22:02:33.191Z,7.80
2023-03-25T22:07:35.729Z,8.10
2023-03-25T22:12:38.171Z,7.90
2023-03-25T22:17:40.680Z,7.90
2023-03-25T22:22:43.085Z,7.90
2023-03-25T22:27:46.471Z,7.80
2023-03-25T22:32:48.806Z,7.90
2023-03-25T22:37:52.865Z,7.90
2023-03-25T22:42:55.926Z,7.90
2023-03-25T22:47:58.423Z,7.90
2023-03-25T22:53:01.063Z,7.90
2023-03-25T22:58:03.471Z,8.00
2023-03-25T23:03:06.248Z,8.00
2023-03-25T23:08:09.213Z,7.90
2023-03-25T23:13:11.793Z,7.90
2023-03-25T23:18:14.539Z,7.90
2023-03-25T23:23:17.642Z,7.90
2023-03-25T23:28:20.677Z,7.90
2023-03-25T23:33:23.128Z,8.00
2023-03-25T23:38:25.671Z,8.00
2023-03-25T23:43:28.454Z,8.00
2023-03-25T23:48:31.662Z,7.90
2023-03-25T23:53:36.715Z,7.80
2023-03-25T23:58:40.945Z,7.80
